createdAt,value
2017-10-30T00:00:09.817Z,58.86
2017-10-30T00:02:37.377Z,59.10
2017-10-30T00:05:04.954Z,58.87
2017-10-30T00:07:32.800Z,59.21
2017-10-30T00:10:00.356Z,59.03
2017-10-30T00:12:27.907Z,58.99
2017-10-30T00:14:55.578Z,58.71
2017-10-30T00:17:23.127Z,58.91
2017-10-30T00:19:50.786Z,58.71
2017-10-30T00:22:18.664Z,59.04
2017-10-30T00:24:46.229Z,58.99
2017-10-30T00:27:13.780Z,59.18
2017-10-30T00:29:41.548Z,59.63
2017-10-30T00:32:09.097Z,59.28
2017-10-30T00:34:36.754Z,59.42
2017-10-30T00:37:04.535Z,59.34
2017-10-30T00:39:32.088Z,59.14
2017-10-30T00:41:59.637Z,58.91
2017-10-30T00:44:27.412Z,59.20
2017-10-30T00:46:54.964Z,59.33
2017-10-30T00:49:22.520Z,59.43
2017-10-30T00:51:50.305Z,59.52
2017-10-30T00:54:17.864Z,59.30
2017-10-30T00:56:45.436Z,59.57
2017-10-30T00:59:13.277Z,59.57
2017-10-30T01:01:40.833Z,59.48
2017-10-30T01:04:08.409Z,59.60
2017-10-30T01:06:36.360Z,59.80
2017-10-30T01:09:03.924Z,59.42
2017-10-30T01:11:31.475Z,59.75
2017-10-30T01:13:59.176Z,59.31
2017-10-30T01:16:26.743Z,60.07
2017-10-30T01:18:54.358Z,59.50
2017-10-30T01:21:22.064Z,59.87
2017-10-30T01:23:49.625Z,59.87
2017-10-30T01:26:17.172Z,59.77
2017-10-30T01:28:45.008Z,59.36
2017-10-30T01:31:12.575Z,59.73
2017-10-30T01:33:40.129Z,59.46
2017-10-30T01:36:08.092Z,59.86
2017-10-30T01:38:35.644Z,60.49
2017-10-30T01:41:03.218Z,60.22
2017-10-30T01:43:30.986Z,60.21
2017-10-30T01:45:58.544Z,60.55
2017-10-30T01:48:26.109Z,59.85
2017-10-30T01:50:53.960Z,59.57
2017-10-30T01:53:21.528Z,59.87
2017-10-30T01:55:49.116Z,59.76
2017-10-30T01:58:16.949Z,60.25
2017-10-30T02:00:44.499Z,60.39
2017-10-30T02:03:12.069Z,60.15
2017-10-30T02:05:39.955Z,60.15
2017-10-30T02:08:07.585Z,60.46
2017-10-30T02:10:35.144Z,60.10
2017-10-30T02:13:03.120Z,60.79
2017-10-30T02:15:30.680Z,60.42
2017-10-30T02:17:58.232Z,61.11
2017-10-30T02:20:26.000Z,61.17
2017-10-30T02:22:53.556Z,60.77
2017-10-30T02:25:21.109Z,60.31
2017-10-30T02:27:48.908Z,60.46
2017-10-30T02:30:16.464Z,60.55
2017-10-30T02:32:44.098Z,60.64
2017-10-30T02:35:12.000Z,60.74
2017-10-30T02:37:39.626Z,60.97
2017-10-30T02:40:07.185Z,60.63
2017-10-30T02:42:35.171Z,61.31
2017-10-30T02:45:02.743Z,60.92
2017-10-30T02:47:30.300Z,61.07
2017-10-30T02:49:57.934Z,61.01
2017-10-30T02:52:25.493Z,60.77
2017-10-30T02:54:53.049Z,61.29
2017-10-30T02:57:20.937Z,61.17
2017-10-30T02:59:48.529Z,60.79
2017-10-30T03:02:16.140Z,61.37
2017-10-30T03:04:44.227Z,60.76
2017-10-30T03:07:11.779Z,61.15
2017-10-30T03:09:39.376Z,61.74
2017-10-30T03:12:07.095Z,61.62
2017-10-30T03:14:34.657Z,61.24
2017-10-30T03:17:02.209Z,60.86
2017-10-30T03:19:29.900Z,61.93
2017-10-30T03:21:57.468Z,61.80
2017-10-30T03:24:25.040Z,61.50
2017-10-30T03:26:52.763Z,61.53
2017-10-30T03:29:20.307Z,61.00
2017-10-30T03:31:47.876Z,61.26
2017-10-30T03:34:15.737Z,60.99
2017-10-30T03:36:43.296Z,61.75
2017-10-30T03:39:10.864Z,61.69
2017-10-30T03:41:38.744Z,61.31
2017-10-30T03:44:06.324Z,61.14
2017-10-30T03:46:33.881Z,61.71
2017-10-30T03:49:01.493Z,61.27
2017-10-30T03:51:29.058Z,61.31
2017-10-30T03:53:56.616Z,61.60
2017-10-30T03:56:24.601Z,60.75
2017-10-30T03:58:52.160Z,60.77
2017-10-30T04:01:19.708Z,61.10
2017-10-30T04:03:47.571Z,61.57
2017-10-30T04:06:15.137Z,61.43
2017-10-30T04:08:43.609Z,61.50
2017-10-30T04:11:11.380Z,61.76
2017-10-30T04:13:38.943Z,61.62
2017-10-30T04:16:06.496Z,61.66
2017-10-30T04:18:34.368Z,61.74
2017-10-30T04:21:01.943Z,61.69
2017-10-30T04:23:29.522Z,61.40
2017-10-30T04:25:57.446Z,61.30
2017-10-30T04:28:25.004Z,61.76
2017-10-30T04:30:52.557Z,61.22
2017-10-30T04:33:20.327Z,61.32
2017-10-30T04:35:47.891Z,61.26
2017-10-30T04:38:16.366Z,61.70
2017-10-30T04:40:44.179Z,62.04
2017-10-30T04:43:11.812Z,62.15
2017-10-30T04:45:39.369Z,62.00
2017-10-30T04:48:07.120Z,61.98
2017-10-30T04:50:34.692Z,62.13
2017-10-30T04:53:02.260Z,61.92
2017-10-30T04:55:30.005Z,62.14
2017-10-30T04:57:57.673Z,62.18
2017-10-30T05:00:25.247Z,61.68
2017-10-30T05:02:52.940Z,61.96
2017-10-30T05:05:20.543Z,62.30
2017-10-30T05:07:48.101Z,62.22
2017-10-30T05:10:16.207Z,62.50
2017-10-30T05:12:43.836Z,61.94
2017-10-30T05:15:11.393Z,62.20
2017-10-30T05:17:39.166Z,62.88
2017-10-30T05:20:06.722Z,62.79
2017-10-30T05:22:34.275Z,63.04
2017-10-30T05:25:02.057Z,62.91
2017-10-30T05:27:29.701Z,62.72
2017-10-30T05:29:57.255Z,62.46
2017-10-30T05:32:25.135Z,63.18
2017-10-30T05:34:52.693Z,62.77
2017-10-30T05:37:20.245Z,63.10
2017-10-30T05:39:48.015Z,62.92
2017-10-30T05:42:15.571Z,63.24
2017-10-30T05:44:43.127Z,62.80
2017-10-30T05:47:10.907Z,62.39
2017-10-30T05:49:38.500Z,62.47
2017-10-30T05:52:06.049Z,62.33
2017-10-30T05:54:33.988Z,62.79
2017-10-30T05:57:01.541Z,62.36
2017-10-30T05:59:29.101Z,62.66
2017-10-30T06:01:56.869Z,62.83
2017-10-30T06:04:24.420Z,63.11
2017-10-30T06:06:51.991Z,62.84
2017-10-30T06:09:19.576Z,62.46
2017-10-30T06:11:47.138Z,62.19
2017-10-30T06:14:14.701Z,63.29
2017-10-30T06:16:42.572Z,62.57
2017-10-30T06:19:10.181Z,62.29
2017-10-30T06:21:37.739Z,62.29
2017-10-30T06:24:05.614Z,61.94
2017-10-30T06:26:33.169Z,62.11
2017-10-30T06:29:00.716Z,61.95
2017-10-30T06:31:28.490Z,61.99
2017-10-30T06:33:56.158Z,61.93
2017-10-30T06:36:23.717Z,61.63
2017-10-30T06:38:51.317Z,61.66
2017-10-30T06:41:18.881Z,61.49
2017-10-30T06:43:46.441Z,61.12
2017-10-30T06:46:14.466Z,60.91
2017-10-30T06:48:42.026Z,61.14
2017-10-30T06:51:09.600Z,60.94
2017-10-30T06:53:37.495Z,61.07
2017-10-30T06:56:05.112Z,60.61
2017-10-30T06:58:32.665Z,60.98
2017-10-30T07:01:00.269Z,60.65
2017-10-30T07:03:27.823Z,60.24
2017-10-30T07:05:55.388Z,60.12
2017-10-30T07:08:23.109Z,59.96
2017-10-30T07:10:51.071Z,59.16
2017-10-30T07:13:18.644Z,59.33
2017-10-30T07:15:46.430Z,58.44
2017-10-30T07:18:14.001Z,58.04
2017-10-30T07:20:41.556Z,58.38
2017-10-30T07:23:09.296Z,58.42
2017-10-30T07:25:36.856Z,57.77
2017-10-30T07:28:04.408Z,57.94
2017-10-30T07:30:32.048Z,57.75
2017-10-30T07:32:59.630Z,56.96
2017-10-30T07:35:27.208Z,56.71
2017-10-30T07:37:55.056Z,56.02
2017-10-30T07:40:22.708Z,55.75
2017-10-30T07:42:50.285Z,55.43
2017-10-30T07:45:18.025Z,55.22
2017-10-30T07:47:45.584Z,55.92
2017-10-30T07:50:13.158Z,55.70
2017-10-30T07:52:41.017Z,56.00
2017-10-30T07:55:08.613Z,55.88
2017-10-30T07:57:36.230Z,56.02
2017-10-30T08:00:04.025Z,56.19
2017-10-30T08:02:31.673Z,55.50
2017-10-30T08:04:59.373Z,54.61
2017-10-30T08:07:27.315Z,54.31
2017-10-30T08:09:54.919Z,54.34
2017-10-30T08:12:22.540Z,54.20
2017-10-30T08:14:50.578Z,53.76
2017-10-30T08:17:18.141Z,53.60
2017-10-30T08:19:45.708Z,53.12
2017-10-30T08:22:13.357Z,52.52
2017-10-30T08:24:41.144Z,52.31
2017-10-30T08:27:08.876Z,52.01
2017-10-30T08:29:36.873Z,52.39
2017-10-30T08:32:05.436Z,52.46
2017-10-30T08:34:33.099Z,51.47
2017-10-30T08:37:01.009Z,51.25
2017-10-30T08:39:28.609Z,51.15
2017-10-30T08:41:56.185Z,51.32
2017-10-30T08:44:24.017Z,51.04
2017-10-30T08:46:51.624Z,51.32
2017-10-30T08:49:19.204Z,51.06
2017-10-30T08:51:47.243Z,51.43
2017-10-30T08:54:14.969Z,50.92
2017-10-30T08:56:42.803Z,49.64
2017-10-30T08:59:10.639Z,48.20
2017-10-30T09:01:38.394Z,48.42
2017-10-30T09:04:06.028Z,48.18
2017-10-30T09:06:34.142Z,46.79
2017-10-30T09:09:01.895Z,45.51
2017-10-30T09:11:29.502Z,43.91
2017-10-30T09:13:57.255Z,44.23
2017-10-30T09:16:24.898Z,43.60
2017-10-30T09:18:52.497Z,42.50
2017-10-30T09:21:20.514Z,43.73
2017-10-30T09:23:48.272Z,44.31
2017-10-30T09:26:15.935Z,39.99
2017-10-30T09:28:43.723Z,35.18
2017-10-30T09:31:11.428Z,34.69
2017-10-30T09:33:39.054Z,33.34
2017-10-30T09:36:06.901Z,31.61
2017-10-30T09:38:34.653Z,30.42
2017-10-30T09:41:02.322Z,30.09
2017-10-30T09:43:29.984Z,32.23
2017-10-30T09:45:57.639Z,34.33
2017-10-30T09:48:25.605Z,34.90
2017-10-30T09:50:53.472Z,31.35
2017-10-30T09:53:21.240Z,25.87
2017-10-30T09:55:48.898Z,26.47
2017-10-30T09:58:16.865Z,27.75
2017-10-30T10:00:44.730Z,28.48
2017-10-30T10:03:12.677Z,29.04
2017-10-30T10:05:40.574Z,30.42
2017-10-30T10:08:08.532Z,30.85
2017-10-30T10:10:36.129Z,30.05
2017-10-30T10:13:04.147Z,28.71
2017-10-30T10:15:31.780Z,29.23
2017-10-30T10:17:59.380Z,29.67
2017-10-30T10:20:27.169Z,29.90
2017-10-30T10:22:54.744Z,30.25
2017-10-30T10:25:22.549Z,32.69
2017-10-30T10:27:50.482Z,35.52
2017-10-30T10:30:18.135Z,31.23
2017-10-30T10:32:46.216Z,27.77
2017-10-30T10:35:13.962Z,22.68
2017-10-30T10:37:41.540Z,19.93
2017-10-30T10:40:09.103Z,20.32
2017-10-30T10:42:36.828Z,19.35
2017-10-30T10:45:04.409Z,16.36
2017-10-30T10:47:32.143Z,14.99
2017-10-30T10:49:59.918Z,13.22
2017-10-30T10:52:27.879Z,13.82
2017-10-30T10:54:55.466Z,15.11
2017-10-30T10:57:23.203Z,16.31
2017-10-30T10:59:50.770Z,17.38
2017-10-30T11:02:18.332Z,19.81
2017-10-30T11:04:46.333Z,17.95
2017-10-30T11:07:13.889Z,16.28
2017-10-30T11:09:41.568Z,17.42
2017-10-30T11:12:09.507Z,19.05
2017-10-30T11:14:37.076Z,20.56
2017-10-30T11:17:04.641Z,22.88
2017-10-30T11:19:32.388Z,25.89
2017-10-30T11:21:59.948Z,28.69
2017-10-30T11:24:27.571Z,30.00
2017-10-30T11:26:55.448Z,25.12
2017-10-30T11:29:23.027Z,20.82
2017-10-30T11:31:50.597Z,20.08
2017-10-30T11:34:18.497Z,23.17
2017-10-30T11:36:46.052Z,27.30
2017-10-30T11:39:13.647Z,30.62
2017-10-30T11:41:41.439Z,33.47
2017-10-30T11:44:09.019Z,34.29
2017-10-30T11:46:36.637Z,36.01
2017-10-30T11:49:04.543Z,36.42
2017-10-30T11:51:32.161Z,28.19
2017-10-30T11:53:59.732Z,21.43
2017-10-30T11:56:27.620Z,18.89
2017-10-30T11:58:55.350Z,17.01
2017-10-30T12:01:22.945Z,15.42
2017-10-30T12:03:50.592Z,13.98
2017-10-30T12:06:18.168Z,13.42
2017-10-30T12:08:45.840Z,16.54
2017-10-30T12:11:13.664Z,18.47
2017-10-30T12:13:41.829Z,21.57
2017-10-30T12:16:09.420Z,23.40
2017-10-30T12:18:37.177Z,24.96
2017-10-30T12:21:05.741Z,26.98
2017-10-30T12:23:33.299Z,29.13
2017-10-30T12:26:01.106Z,30.35
2017-10-30T12:28:28.668Z,31.50
2017-10-30T12:30:56.505Z,31.92
2017-10-30T12:33:24.512Z,32.14
2017-10-30T12:35:52.174Z,32.25
2017-10-30T12:38:19.878Z,32.02
2017-10-30T12:40:47.679Z,32.82
2017-10-30T12:43:15.306Z,32.17
2017-10-30T12:45:42.874Z,32.29
2017-10-30T12:48:10.830Z,33.02
2017-10-30T12:50:39.516Z,33.19
2017-10-30T12:53:08.303Z,34.23
2017-10-30T12:55:36.380Z,33.86
2017-10-30T12:58:04.229Z,34.67
2017-10-30T13:00:31.832Z,35.71
2017-10-30T13:02:59.668Z,35.61
2017-10-30T13:05:27.436Z,36.30
2017-10-30T13:07:56.120Z,35.62
2017-10-30T13:10:23.945Z,36.36
2017-10-30T13:12:51.646Z,36.26
2017-10-30T13:15:19.212Z,36.77
2017-10-30T13:17:47.377Z,37.05
2017-10-30T13:20:14.953Z,36.86
2017-10-30T13:22:42.530Z,36.68
2017-10-30T13:25:10.373Z,36.62
2017-10-30T13:27:38.029Z,35.99
2017-10-30T13:30:06.654Z,36.62
2017-10-30T13:32:34.261Z,37.43
2017-10-30T13:35:01.863Z,38.44
2017-10-30T13:37:29.472Z,38.39
2017-10-30T13:39:57.266Z,39.43
2017-10-30T13:42:24.897Z,39.57
2017-10-30T13:44:52.575Z,39.37
2017-10-30T13:47:21.261Z,39.75
2017-10-30T13:49:48.852Z,38.75
2017-10-30T13:52:16.433Z,37.78
2017-10-30T13:54:44.485Z,37.19
2017-10-30T13:57:12.108Z,36.81
2017-10-30T13:59:40.080Z,35.83
2017-10-30T14:02:07.784Z,36.03
2017-10-30T14:04:35.428Z,35.92
2017-10-30T14:07:03.064Z,36.93
2017-10-30T14:09:30.863Z,37.85
2017-10-30T14:11:58.416Z,37.64
2017-10-30T14:14:25.994Z,37.33
2017-10-30T14:16:54.122Z,38.36
2017-10-30T14:19:21.957Z,38.63
2017-10-30T14:21:49.545Z,39.43
2017-10-30T14:24:17.411Z,39.54
2017-10-30T14:26:45.482Z,39.55
2017-10-30T14:29:13.056Z,39.94
2017-10-30T14:31:40.704Z,39.54
2017-10-30T14:34:08.262Z,39.94
2017-10-30T14:36:35.823Z,39.98
2017-10-30T14:39:03.702Z,40.30
2017-10-30T14:41:31.292Z,39.97
2017-10-30T14:43:58.872Z,40.60
2017-10-30T14:46:26.689Z,41.80
2017-10-30T14:48:54.279Z,41.56
2017-10-30T14:51:21.900Z,42.07
2017-10-30T14:53:49.520Z,42.70
2017-10-30T14:56:17.092Z,42.58
2017-10-30T14:58:44.684Z,42.69
2017-10-30T15:01:12.789Z,43.21
2017-10-30T15:03:40.352Z,43.07
2017-10-30T15:06:08.012Z,42.83
2017-10-30T15:08:35.968Z,41.97
2017-10-30T15:11:03.576Z,41.96
2017-10-30T15:13:31.152Z,42.50
2017-10-30T15:15:59.938Z,43.41
2017-10-30T15:18:27.600Z,43.62
2017-10-30T15:20:55.177Z,44.62
2017-10-30T15:23:22.822Z,44.71
2017-10-30T15:25:50.397Z,45.28
2017-10-30T15:28:17.955Z,46.34
2017-10-30T15:30:45.841Z,46.33
2017-10-30T15:33:13.411Z,46.57
2017-10-30T15:35:41.052Z,47.32
2017-10-30T15:38:08.913Z,47.46
2017-10-30T15:40:36.486Z,47.85
2017-10-30T15:43:04.067Z,48.17
2017-10-30T15:45:31.789Z,48.83
2017-10-30T15:47:59.368Z,48.61
2017-10-30T15:50:26.951Z,49.55
2017-10-30T15:52:54.904Z,49.51
2017-10-30T15:55:22.466Z,49.62
2017-10-30T15:57:50.024Z,49.98
2017-10-30T16:00:17.864Z,50.14
2017-10-30T16:02:45.448Z,50.96
2017-10-30T16:05:13.016Z,50.84
2017-10-30T16:07:40.842Z,51.12
2017-10-30T16:10:08.396Z,51.81
2017-10-30T16:12:35.968Z,51.92
2017-10-30T16:15:04.229Z,51.61
2017-10-30T16:17:31.800Z,51.70
2017-10-30T16:19:59.450Z,51.98
2017-10-30T16:22:28.235Z,51.22
2017-10-30T16:24:55.824Z,51.02
2017-10-30T16:27:23.388Z,50.84
2017-10-30T16:29:51.233Z,50.97
2017-10-30T16:32:18.795Z,50.80
2017-10-30T16:34:46.374Z,50.74
2017-10-30T16:37:14.207Z,51.26
2017-10-30T16:39:41.763Z,51.29
2017-10-30T16:42:09.337Z,51.26
2017-10-30T16:44:37.088Z,51.55
2017-10-30T16:47:04.681Z,51.88
2017-10-30T16:49:32.246Z,52.02
2017-10-30T16:52:00.177Z,52.69
2017-10-30T16:54:27.752Z,52.66
2017-10-30T16:56:55.324Z,52.91
2017-10-30T16:59:23.274Z,53.14
2017-10-30T17:01:50.834Z,53.71
2017-10-30T17:04:18.408Z,53.88
2017-10-30T17:06:46.152Z,54.47
2017-10-30T17:09:13.730Z,54.18
2017-10-30T17:11:41.310Z,54.16
2017-10-30T17:14:09.040Z,54.39
2017-10-30T17:16:36.684Z,54.85
2017-10-30T17:19:04.258Z,54.95
2017-10-30T17:21:31.856Z,54.89
2017-10-30T17:24:11.357Z,54.90
2017-10-30T17:26:39.184Z,55.16
2017-10-30T17:29:06.752Z,55.27
2017-10-30T17:31:34.540Z,55.40
2017-10-30T17:34:02.321Z,55.37
2017-10-30T17:36:29.976Z,55.73
2017-10-30T17:38:57.531Z,55.86
2017-10-30T17:41:25.275Z,56.09
2017-10-30T17:43:52.847Z,56.37
2017-10-30T17:46:20.400Z,56.77
2017-10-30T17:48:48.269Z,56.97
2017-10-30T17:51:15.823Z,57.38
2017-10-30T17:53:43.381Z,57.70
2017-10-30T17:56:11.229Z,58.21
2017-10-30T17:58:38.821Z,58.23
2017-10-30T18:01:06.374Z,58.47
2017-10-30T18:03:34.144Z,58.40
2017-10-30T18:06:01.724Z,58.30
2017-10-30T18:08:29.336Z,58.45
2017-10-30T18:10:57.327Z,58.20
2017-10-30T18:13:24.897Z,58.85
2017-10-30T18:15:52.458Z,59.02
2017-10-30T18:18:20.319Z,59.40
2017-10-30T18:20:47.882Z,59.19
2017-10-30T18:23:15.457Z,59.45
2017-10-30T18:25:43.202Z,59.45
2017-10-30T18:28:10.788Z,59.60
2017-10-30T18:30:38.407Z,59.36
2017-10-30T18:33:06.208Z,59.53
2017-10-30T18:35:33.774Z,59.79
2017-10-30T18:38:01.525Z,60.22
2017-10-30T18:40:29.288Z,59.99
2017-10-30T18:42:56.881Z,60.17
2017-10-30T18:45:24.477Z,59.98
2017-10-30T18:47:52.143Z,60.10
2017-10-30T18:50:19.746Z,60.65
2017-10-30T18:52:47.325Z,60.64
2017-10-30T18:55:15.158Z,61.32
2017-10-30T18:57:42.788Z,61.43
2017-10-30T19:00:10.641Z,60.98
2017-10-30T19:02:39.642Z,61.09
2017-10-30T19:05:07.321Z,61.59
2017-10-30T19:07:35.049Z,60.77
2017-10-30T19:10:03.228Z,60.65
2017-10-30T19:12:30.833Z,60.63
2017-10-30T19:14:58.510Z,60.98
2017-10-30T19:17:26.545Z,60.29
2017-10-30T19:19:54.400Z,60.34
2017-10-30T19:22:22.164Z,60.23
2017-10-30T19:24:50.220Z,60.09
2017-10-30T19:27:17.962Z,61.00
2017-10-30T19:29:45.755Z,60.27
2017-10-30T19:32:13.432Z,59.65
2017-10-30T19:34:41.536Z,59.32
2017-10-30T19:37:09.141Z,59.32
2017-10-30T19:39:37.036Z,58.94
2017-10-30T19:42:04.718Z,58.93
2017-10-30T19:44:32.390Z,58.81
2017-10-30T19:47:00.240Z,60.00
2017-10-30T19:49:28.009Z,59.33
2017-10-30T19:51:55.581Z,59.04
2017-10-30T19:54:23.709Z,58.74
2017-10-30T19:56:51.473Z,59.56
2017-10-30T19:59:19.141Z,59.91
2017-10-30T20:01:47.231Z,60.20
2017-10-30T20:04:14.867Z,59.86
2017-10-30T20:06:48.172Z,60.02
2017-10-30T20:09:21.378Z,60.39
2017-10-30T20:11:55.188Z,60.70
2017-10-30T20:14:22.888Z,60.48
2017-10-30T20:16:50.633Z,61.30
2017-10-30T20:19:18.629Z,61.84
2017-10-30T20:21:46.270Z,61.72
2017-10-30T20:24:13.869Z,61.57
2017-10-30T20:26:41.657Z,62.19
2017-10-30T20:29:09.416Z,63.03
2017-10-30T20:31:37.133Z,62.53
2017-10-30T20:34:05.321Z,62.50
2017-10-30T20:36:32.913Z,62.57
2017-10-30T20:39:00.480Z,62.04
2017-10-30T20:41:28.339Z,62.73
2017-10-30T20:43:55.888Z,62.13
2017-10-30T20:46:23.452Z,62.72
2017-10-30T20:48:51.517Z,62.55
2017-10-30T20:51:19.280Z,62.92
2017-10-30T20:53:47.025Z,63.17
2017-10-30T20:56:15.112Z,62.77
2017-10-30T20:58:43.700Z,62.52
2017-10-30T21:01:11.462Z,62.89
2017-10-30T21:03:39.617Z,63.04
2017-10-30T21:06:07.497Z,63.95
2017-10-30T21:08:35.466Z,63.02
2017-10-30T21:11:03.847Z,63.56
2017-10-30T21:13:31.537Z,63.62
2017-10-30T21:15:59.275Z,63.20
2017-10-30T21:18:27.074Z,62.98
2017-10-30T21:20:54.697Z,63.07
2017-10-30T21:23:22.459Z,62.86
2017-10-30T21:25:50.326Z,63.17
2017-10-30T21:28:17.908Z,62.50
2017-10-30T21:30:45.537Z,62.78
2017-10-30T21:33:13.255Z,62.94
2017-10-30T21:35:41.125Z,62.70
2017-10-30T21:38:08.832Z,62.75
2017-10-30T21:40:36.808Z,63.22
2017-10-30T21:43:04.397Z,63.12
2017-10-30T21:45:32.129Z,63.94
2017-10-30T21:48:00.317Z,64.79
2017-10-30T21:50:27.983Z,63.96
2017-10-30T21:52:55.585Z,63.67
2017-10-30T21:55:23.801Z,62.84
2017-10-30T21:57:51.472Z,62.83
2017-10-30T22:00:19.229Z,64.20
2017-10-30T22:02:46.867Z,63.10
2017-10-30T22:05:14.428Z,62.19
2017-10-30T22:07:42.005Z,63.27
2017-10-30T22:10:09.803Z,63.86
2017-10-30T22:12:37.414Z,64.11
2017-10-30T22:15:05.015Z,63.99
2017-10-30T22:17:33.180Z,63.77
2017-10-30T22:20:00.763Z,63.15
2017-10-30T22:22:28.377Z,63.54
2017-10-30T22:24:55.993Z,63.43
2017-10-30T22:27:23.556Z,63.59
2017-10-30T22:29:51.266Z,63.99
2017-10-30T22:32:19.153Z,64.53
2017-10-30T22:34:46.723Z,65.39
2017-10-30T22:37:14.296Z,65.86
2017-10-30T22:39:42.053Z,65.88
2017-10-30T22:42:09.688Z,65.16
2017-10-30T22:44:37.251Z,65.71
2017-10-30T22:47:05.007Z,65.97
2017-10-30T22:49:32.599Z,66.05
2017-10-30T22:52:00.172Z,65.89
2017-10-30T22:54:27.782Z,66.49
2017-10-30T22:56:55.362Z,66.28
2017-10-30T22:59:23.308Z,66.00
2017-10-30T23:01:51.215Z,66.88
2017-10-30T23:04:18.834Z,66.94
2017-10-30T23:06:46.868Z,67.50
2017-10-30T23:09:14.782Z,66.59
2017-10-30T23:11:42.372Z,66.88
2017-10-30T23:14:10.003Z,67.21
2017-10-30T23:16:37.771Z,67.20
2017-10-30T23:19:05.348Z,65.85
2017-10-30T23:21:32.922Z,66.59
2017-10-30T23:24:00.653Z,66.53
2017-10-30T23:26:28.212Z,68.61
2017-10-30T23:28:55.768Z,69.66
2017-10-30T23:31:23.364Z,67.87
2017-10-30T23:33:50.924Z,66.63
2017-10-30T23:36:18.485Z,67.97
2017-10-30T23:38:46.203Z,66.86
2017-10-30T23:41:13.760Z,67.19
2017-10-30T23:43:41.422Z,66.25
2017-10-30T23:46:09.075Z,67.03
2017-10-30T23:48:36.639Z,66.20
2017-10-30T23:51:04.356Z,66.73
2017-10-30T23:53:32.376Z,66.21
2017-10-30T23:55:59.932Z,66.60
2017-10-30T23:58:27.505Z,66.85
